Latest Weather Observations for Port Kembla Harbour

IDN60801

Issued at 7:35 pm EST Sunday 21 September 2014 (issued every 30 minutes, with the page automatically refreshed every 10 minutes)

About weather observations | Map of weather stations | Latest weather observations for NSW | Other Formats
Station Details ID: 068253 Name: PORT KEMBLA NTC AWS Lat: -34.47 Lon: 150.91 Height: 0.0 m
Data from the previous 72 hours. | See also: Recent months for locations in New South Wales
Date/Time
EST
Temp
°C
App
Temp
°C
Dew
Point
Rel
Hum
%
Delta-T
°C
Wind Press
QNH
hPa
Press
MSL
hPa
Rain
since 9 am
mm
Dir
 
Spd
km/h
Gust
km/h
Spd
kts
Gust
kts
21/07:30pm 15.7 - - - - SSE 7 13 4 7 1029.6 1029.6 -
21/07:00pm 15.7 - - - - SE 7 13 4 7 1029.2 1029.2 -
21/06:30pm 15.7 - - - - SSE 9 17 5 9 1028.7 1028.7 -
21/06:00pm 15.7 - - - - SSE 7 15 4 8 1028.2 1028.2 -
21/05:30pm 15.8 - - - - SE 11 17 6 9 1027.9 1027.9 -
21/05:00pm 16.0 - - - - SE 11 17 6 9 1027.7 1027.7 -
21/04:30pm 15.9 - - - - ESE 9 15 5 8 1027.6 1027.6 -
21/04:00pm 16.2 - - - - ESE 11 17 6 9 1027.5 1027.5 -
21/03:30pm 16.0 - - - - ESE 11 17 6 9 1027.4 1027.4 -
21/03:00pm 15.9 - - - - SE 13 19 7 10 1027.4 1027.4 -
21/02:30pm 15.8 - - - - ESE 13 19 7 10 1027.5 1027.5 -
21/02:00pm 15.9 - - - - SE 15 20 8 11 1027.7 1027.7 -
21/01:30pm 15.7 - - - - ESE 13 17 7 9 1027.9 1027.9 -
21/01:00pm 15.8 - - - - SE 13 19 7 10 1028.3 1028.3 -
21/12:30pm 15.9 - - - - SE 15 22 8 12 1028.6 1028.6 -
21/12:00pm 16.0 - - - - SE 17 24 9 13 1029.1 1029.1 -
21/11:30am 16.6 - - - - SE 15 22 8 12 1029.7 1029.7 -
21/11:00am 16.0 - - - - SSE 13 24 7 13 1030.0 1030.0 -
21/10:30am 16.4 - - - - SE 13 22 7 12 1030.2 1030.2 -
21/10:00am 16.2 - - - - S 13 30 7 16 1030.3 1030.3 -
21/09:30am 16.2 - - - - S 11 24 6 13 1030.3 1030.3 -
21/09:00am 15.9 - - - - SSW 13 24 7 13 1030.3 1030.3 -
21/08:30am 15.5 - - - - SSW 15 26 8 14 1030.1 1030.1 -
21/08:00am 14.3 - - - - WSW 13 19 7 10 1029.7 1029.7 -
21/07:30am 13.7 - - - - WSW 13 19 7 10 1029.1 1029.1 -
21/07:00am 12.9 - - - - WSW 13 17 7 9 1028.8 1028.8 -
21/06:30am 12.6 - - - - WSW 13 15 7 8 1028.3 1028.3 -
21/06:00am 12.3 - - - - WSW 11 15 6 8 1027.9 1027.9 -
21/05:30am 12.3 - - - - WSW 7 11 4 6 1027.7 1027.7 -
21/05:00am 12.5 - - - - WSW 11 13 6 7 1027.2 1027.2 -
21/04:30am 13.2 - - - - WSW 7 11 4 6 1027.0 1027.0 -
21/04:00am 13.3 - - - - WSW 11 15 6 8 1026.8 1026.8 -
21/03:30am 13.2 - - - - WSW 9 13 5 7 1026.9 1026.9 -
21/03:00am 13.1 - - - - WSW 7 9 4 5 1026.8 1026.8 -
21/02:30am 13.3 - - - - WSW 7 13 4 7 1027.0 1027.0 -
21/02:00am 13.7 - - - - WSW 11 13 6 7 1027.2 1027.2 -
21/01:30am 13.8 - - - - WSW 11 19 6 10 1027.4 1027.4 -
21/01:00am 13.3 - - - - WSW 11 15 6 8 1027.7 1027.7 -
21/12:30am 13.0 - - - - WSW 9 11 5 6 1027.8 1027.8 -
21/12:00am 13.4 - - - - WSW 11 13 6 7 1027.8 1027.8 -
 
Date/Time
EST
Temp
°C
App
Temp
°C
Dew
Point
Rel
Hum
%
Delta-T
°C
Wind Press
QNH
hPa
Press
MSL
hPa
Rain
since 9 am
mm
Dir
 
Spd
km/h
Gust
km/h
Spd
kts
Gust
kts
20/11:30pm 13.5 - - - - WSW 11 15 6 8 1027.8 1027.8 -
20/11:00pm 13.6 - - - - W 13 17 7 9 1027.8 1027.8 -
20/10:30pm 13.8 - - - - WSW 13 15 7 8 1027.8 1027.8 -
20/10:00pm 14.0 - - - - WSW 11 15 6 8 1027.8 1027.8 -
20/09:30pm 13.9 - - - - W 11 17 6 9 1027.6 1027.6 -
20/09:00pm 14.4 - - - - WSW 11 17 6 9 1027.4 1027.4 -
20/08:30pm 14.2 - - - - WSW 11 17 6 9 1027.2 1027.2 -
20/08:00pm 14.8 - - - - WSW 9 15 5 8 1026.8 1026.8 -
20/07:30pm 15.8 - - - - S 7 19 4 10 1026.5 1026.5 -
20/07:00pm 15.8 - - - - S 9 22 5 12 1026.1 1026.1 -
20/06:30pm 15.8 - - - - S 9 20 5 11 1025.6 1025.6 -
20/06:00pm 15.9 - - - - SSE 9 19 5 10 1025.2 1025.2 -
20/05:30pm 15.9 - - - - SSE 11 20 6 11 1024.9 1024.9 -
20/05:00pm 15.9 - - - - SSE 13 26 7 14 1024.3 1024.3 -
20/04:30pm 15.9 - - - - S 15 26 8 14 1024.0 1024.0 -
20/04:00pm 16.1 - - - - S 13 26 7 14 1023.8 1023.8 -
20/03:30pm 16.1 - - - - SSE 17 30 9 16 1023.6 1023.6 -
20/03:00pm 16.4 - - - - SSE 13 24 7 13 1023.4 1023.4 -
20/02:30pm 16.6 - - - - SSE 17 28 9 15 1023.4 1023.4 -
20/02:00pm 16.3 - - - - SSE 15 26 8 14 1023.5 1023.5 -
20/01:30pm 16.6 - - - - SSE 15 26 8 14 1023.4 1023.4 -
20/01:00pm 16.4 - - - - SSE 15 28 8 15 1023.6 1023.6 -
20/12:30pm 16.4 - - - - SSE 19 32 10 17 1023.8 1023.8 -
20/12:00pm 16.8 - - - - SSE 13 26 7 14 1024.0 1024.0 -
20/11:30am 16.4 - - - - SSE 13 24 7 13 1024.2 1024.2 -
20/11:00am 16.1 - - - - S 13 26 7 14 1024.2 1024.2 -
20/10:30am 16.8 - - - - S 11 22 6 12 1024.5 1024.5 -
20/10:00am 15.8 - - - - S 13 24 7 13 1024.6 1024.6 -
20/09:30am 16.1 - - - - S 13 26 7 14 1024.6 1024.6 -
20/09:00am 15.6 - - - - S 15 33 8 18 1024.4 1024.4 -
20/08:30am 15.4 - - - - SSW 13 30 7 16 1024.2 1024.2 -
20/08:00am 14.1 - - - - SW 13 19 7 10 1023.8 1023.8 -
20/07:30am 13.3 - - - - WSW 13 19 7 10 1023.5 1023.5 -
20/07:00am 12.2 - - - - WSW 13 19 7 10 1023.1 1023.1 -
20/06:30am 11.4 - - - - SW 11 13 6 7 1022.3 1022.3 -
20/06:00am 11.1 - - - - SW 9 13 5 7 1021.9 1021.9 -
20/05:30am 10.6 - - - - WSW 6 7 3 4 1021.4 1021.4 -
20/05:00am 10.9 - - - - WSW 9 11 5 6 1020.9 1020.9 -
20/04:30am 10.9 - - - - W 11 15 6 8 1020.5 1020.5 -
20/04:00am 11.1 - - - - WSW 11 15 6 8 1020.3 1020.3 -
20/03:30am 11.1 - - - - WSW 9 13 5 7 1020.1 1020.1 -
20/03:00am 11.2 - - - - WSW 7 11 4 6 1020.2 1020.2 -
20/02:30am 11.5 - - - - W 6 7 3 4 1020.1 1020.1 -
20/02:00am 11.3 - - - - WSW 7 9 4 5 1020.4 1020.4 -
20/01:30am 11.5 - - - - WSW 6 7 3 4 1020.7 1020.7 -
20/01:00am 10.9 - - - - WSW 9 11 5 6 1020.9 1020.9 -
20/12:30am 11.4 - - - - WSW 11 13 6 7 1021.0 1021.0 -
20/12:00am 11.3 - - - - WSW 9 11 5 6 1021.1 1021.1 -
 
Date/Time
EST
Temp
°C
App
Temp
°C
Dew
Point
Rel
Hum
%
Delta-T
°C
Wind Press
QNH
hPa
Press
MSL
hPa
Rain
since 9 am
mm
Dir
 
Spd
km/h
Gust
km/h
Spd
kts
Gust
kts
19/11:30pm 11.4 - - - - WSW 7 9 4 5 1021.2 1021.2 -
19/11:00pm 11.5 - - - - WSW 9 11 5 6 1021.4 1021.4 -
19/10:30pm 11.6 - - - - W 7 9 4 5 1021.5 1021.5 -
19/10:00pm 11.7 - - - - WSW 7 9 4 5 1021.6 1021.6 -
19/09:30pm 12.1 - - - - WSW 7 9 4 5 1021.5 1021.5 -
19/09:00pm 13.0 - - - - WSW 9 13 5 7 1021.4 1021.4 -
19/08:30pm 13.2 - - - - W 9 11 5 6 1021.5 1021.5 -
19/08:00pm 13.0 - - - - W 9 13 5 7 1021.3 1021.3 -
19/07:30pm 14.4 - - - - SW 4 4 2 2 1020.9 1020.9 -
19/07:00pm 14.8 - - - - CALM 0 2 0 1 1020.6 1020.6 -
19/06:30pm 15.0 - - - - S 4 6 2 3 1020.3 1020.3 -
19/06:00pm 15.2 - - - - SSE 4 6 2 3 1019.9 1019.9 -
19/05:30pm 15.4 - - - - SE 7 11 4 6 1019.7 1019.7 -
19/05:00pm 15.4 - - - - SE 9 15 5 8 1019.3 1019.3 -
19/04:30pm 15.1 - - - - SE 11 17 6 9 1019.1 1019.1 -
19/04:00pm 15.3 - - - - ESE 11 17 6 9 1018.9 1018.9 -
19/03:30pm 15.2 - - - - ESE 11 15 6 8 1018.8 1018.8 -
19/03:00pm 15.3 - - - - ESE 9 15 5 8 1018.9 1018.9 -
19/02:30pm 15.4 - - - - ESE 13 19 7 10 1018.9 1018.9 -
19/02:00pm 15.3 - - - - SE 11 17 6 9 1018.9 1018.9 -
19/01:30pm 15.2 - - - - ESE 13 17 7 9 1019.1 1019.1 -
19/01:00pm 15.2 - - - - ESE 11 19 6 10 1019.4 1019.4 -
19/12:30pm 15.1 - - - - ESE 11 17 6 9 1019.7 1019.7 -
19/12:00pm 15.4 - - - - SE 13 17 7 9 1020.0 1020.0 -
19/11:30am 15.2 - - - - SE 13 19 7 10 1020.4 1020.4 -
19/11:00am 14.9 - - - - SE 15 22 8 12 1020.9 1020.9 -
19/10:30am 15.3 - - - - SE 13 19 7 10 1021.0 1021.0 -
19/10:00am 15.7 - - - - SW 7 15 4 8 1021.1 1021.1 -
19/09:30am 15.4 - - - - SSW 7 15 4 8 1021.2 1021.2 -
19/09:00am 14.3 - - - - SW 9 17 5 9 1021.5 1021.5 -
19/08:30am 14.0 - - - - WSW 9 15 5 8 1021.6 1021.6 -
19/08:00am 13.5 - - - - W 11 19 6 10 1021.4 1021.4 -
19/07:30am 12.1 - - - - W 13 15 7 8 1021.2 1021.2 -
19/07:00am 10.9 - - - - W 13 15 7 8 1021.1 1021.1 -
19/06:30am 10.2 - - - - WSW 9 13 5 7 1021.0 1021.0 -
19/06:00am 9.9 - - - - W 9 11 5 6 1020.7 1020.7 -

Other Formats:

Comma delimited format used in spreadsheet applications
http://www.bom.gov.au/fwo/IDN60801/IDN60801.95745.axf

JavaScript Object Notation format (JSON) in row-major order
http://www.bom.gov.au/fwo/IDN60801/IDN60801.95745.json